sensor_id;sensor_type;location;lat;lon;timestamp;P1;durP1;ratioP1;P2;durP2;ratioP2
11962;SDS011;62678;52.130;5.584;2023-05-07T00:01:38;10.52;;;8.50;;
11962;SDS011;62678;52.130;5.584;2023-05-07T00:04:05;9.73;;;8.73;;
11962;SDS011;62678;52.130;5.584;2023-05-07T00:06:32;9.98;;;8.60;;
11962;SDS011;62678;52.130;5.584;2023-05-07T00:09:01;11.13;;;8.30;;
11962;SDS011;62678;52.130;5.584;2023-05-07T00:11:29;9.23;;;8.32;;
11962;SDS011;62678;52.130;5.584;2023-05-07T00:13:56;11.50;;;9.30;;
11962;SDS011;62678;52.130;5.584;2023-05-07T00:16:23;11.18;;;9.35;;
11962;SDS011;62678;52.130;5.584;2023-05-07T00:18:50;10.18;;;9.18;;
11962;SDS011;62678;52.130;5.584;2023-05-07T00:21:17;10.40;;;9.27;;
11962;SDS011;62678;52.130;5.584;2023-05-07T00:23:44;11.88;;;9.05;;
11962;SDS011;62678;52.130;5.584;2023-05-07T00:26:14;11.65;;;9.23;;
11962;SDS011;62678;52.130;5.584;2023-05-07T00:28:41;10.70;;;9.50;;
11962;SDS011;62678;52.130;5.584;2023-05-07T00:31:08;11.82;;;9.25;;
11962;SDS011;62678;52.130;5.584;2023-05-07T00:33:35;11.35;;;9.27;;
11962;SDS011;62678;52.130;5.584;2023-05-07T00:36:02;10.63;;;9.25;;
11962;SDS011;62678;52.130;5.584;2023-05-07T00:38:29;12.00;;;9.75;;
11962;SDS011;62678;52.130;5.584;2023-05-07T00:40:56;11.18;;;9.98;;
11962;SDS011;62678;52.130;5.584;2023-05-07T00:43:24;12.88;;;10.20;;
11962;SDS011;62678;52.130;5.584;2023-05-07T00:45:52;12.13;;;9.45;;
11962;SDS011;62678;52.130;5.584;2023-05-07T00:48:19;12.07;;;10.50;;
11962;SDS011;62678;52.130;5.584;2023-05-07T00:50:46;12.85;;;10.30;;
11962;SDS011;62678;52.130;5.584;2023-05-07T00:53:14;13.10;;;9.98;;
11962;SDS011;62678;52.130;5.584;2023-05-07T00:55:41;13.25;;;10.57;;
11962;SDS011;62678;52.130;5.584;2023-05-07T00:58:08;12.07;;;10.35;;
11962;SDS011;62678;52.130;5.584;2023-05-07T01:00:36;11.43;;;10.32;;
11962;SDS011;62678;52.130;5.584;2023-05-07T01:03:03;11.60;;;10.40;;
11962;SDS011;62678;52.130;5.584;2023-05-07T01:05:31;10.90;;;9.80;;
11962;SDS011;62678;52.130;5.584;2023-05-07T01:07:58;11.77;;;10.13;;
11962;SDS011;62678;52.130;5.584;2023-05-07T01:10:26;13.52;;;10.07;;
11962;SDS011;62678;52.130;5.584;2023-05-07T01:12:55;12.18;;;10.50;;
11962;SDS011;62678;52.130;5.584;2023-05-07T01:15:24;14.95;;;11.55;;
11962;SDS011;62678;52.130;5.584;2023-05-07T01:17:53;12.93;;;11.23;;
11962;SDS011;62678;52.130;5.584;2023-05-07T01:20:20;11.98;;;10.88;;
11962;SDS011;62678;52.130;5.584;2023-05-07T01:22:48;12.20;;;10.93;;
11962;SDS011;62678;52.130;5.584;2023-05-07T01:25:16;15.00;;;11.15;;
11962;SDS011;62678;52.130;5.584;2023-05-07T01:27:43;13.65;;;11.30;;
11962;SDS011;62678;52.130;5.584;2023-05-07T01:30:13;13.57;;;11.10;;
11962;SDS011;62678;52.130;5.584;2023-05-07T01:32:40;14.02;;;10.52;;
11962;SDS011;62678;52.130;5.584;2023-05-07T01:35:12;12.45;;;11.15;;
11962;SDS011;62678;52.130;5.584;2023-05-07T01:37:54;14.98;;;11.68;;
11962;SDS011;62678;52.130;5.584;2023-05-07T01:40:22;13.27;;;11.95;;
11962;SDS011;62678;52.130;5.584;2023-05-07T01:42:50;15.30;;;11.85;;
11962;SDS011;62678;52.130;5.584;2023-05-07T01:45:18;15.63;;;12.38;;
11962;SDS011;62678;52.130;5.584;2023-05-07T01:47:45;15.27;;;11.73;;
11962;SDS011;62678;52.130;5.584;2023-05-07T01:50:12;15.10;;;12.40;;
11962;SDS011;62678;52.130;5.584;2023-05-07T01:52:42;13.98;;;12.00;;
11962;SDS011;62678;52.130;5.584;2023-05-07T01:55:11;13.48;;;12.10;;
11962;SDS011;62678;52.130;5.584;2023-05-07T01:57:38;13.48;;;12.05;;
11962;SDS011;62678;52.130;5.584;2023-05-07T02:00:05;16.00;;;12.27;;
11962;SDS011;62678;52.130;5.584;2023-05-07T02:02:34;17.08;;;12.57;;
11962;SDS011;62678;52.130;5.584;2023-05-07T02:05:00;15.25;;;12.57;;
11962;SDS011;62678;52.130;5.584;2023-05-07T02:07:27;13.85;;;12.45;;
11962;SDS011;62678;52.130;5.584;2023-05-07T02:09:54;15.15;;;13.07;;
11962;SDS011;62678;52.130;5.584;2023-05-07T02:12:23;14.75;;;13.18;;
11962;SDS011;62678;52.130;5.584;2023-05-07T02:14:50;16.13;;;12.88;;
11962;SDS011;62678;52.130;5.584;2023-05-07T02:17:17;15.65;;;13.27;;
11962;SDS011;62678;52.130;5.584;2023-05-07T02:19:43;16.30;;;13.50;;
11962;SDS011;62678;52.130;5.584;2023-05-07T02:22:11;14.48;;;12.95;;
11962;SDS011;62678;52.130;5.584;2023-05-07T02:24:37;16.75;;;13.90;;
11962;SDS011;62678;52.130;5.584;2023-05-07T02:27:04;16.70;;;14.18;;
11962;SDS011;62678;52.130;5.584;2023-05-07T02:29:33;15.30;;;13.70;;
11962;SDS011;62678;52.130;5.584;2023-05-07T02:31:59;16.83;;;13.90;;
11962;SDS011;62678;52.130;5.584;2023-05-07T02:34:26;16.52;;;13.60;;
11962;SDS011;62678;52.130;5.584;2023-05-07T02:36:53;15.52;;;13.93;;
11962;SDS011;62678;52.130;5.584;2023-05-07T02:39:20;14.95;;;13.38;;
11962;SDS011;62678;52.130;5.584;2023-05-07T02:41:47;14.07;;;12.63;;
11962;SDS011;62678;52.130;5.584;2023-05-07T02:44:14;16.67;;;14.07;;
11962;SDS011;62678;52.130;5.584;2023-05-07T02:46:42;16.08;;;14.20;;
11962;SDS011;62678;52.130;5.584;2023-05-07T02:49:09;14.95;;;13.43;;
11962;SDS011;62678;52.130;5.584;2023-05-07T02:51:36;17.65;;;14.45;;
11962;SDS011;62678;52.130;5.584;2023-05-07T02:54:03;15.43;;;13.82;;
11962;SDS011;62678;52.130;5.584;2023-05-07T02:56:30;17.23;;;14.93;;
11962;SDS011;62678;52.130;5.584;2023-05-07T02:58:57;16.67;;;14.88;;
11962;SDS011;62678;52.130;5.584;2023-05-07T03:01:24;18.90;;;15.05;;
11962;SDS011;62678;52.130;5.584;2023-05-07T03:03:53;18.33;;;15.07;;
11962;SDS011;62678;52.130;5.584;2023-05-07T03:06:21;19.02;;;15.55;;
11962;SDS011;62678;52.130;5.584;2023-05-07T03:08:48;18.17;;;14.45;;
11962;SDS011;62678;52.130;5.584;2023-05-07T03:11:15;17.63;;;15.63;;
11962;SDS011;62678;52.130;5.584;2023-05-07T03:13:42;16.83;;;15.15;;
11962;SDS011;62678;52.130;5.584;2023-05-07T03:16:09;16.80;;;15.15;;
11962;SDS011;62678;52.130;5.584;2023-05-07T03:18:36;16.75;;;15.00;;
11962;SDS011;62678;52.130;5.584;2023-05-07T03:21:04;17.33;;;15.30;;
11962;SDS011;62678;52.130;5.584;2023-05-07T03:23:31;17.02;;;15.25;;
11962;SDS011;62678;52.130;5.584;2023-05-07T03:25:58;17.80;;;15.90;;
11962;SDS011;62678;52.130;5.584;2023-05-07T03:28:25;17.35;;;15.45;;
11962;SDS011;62678;52.130;5.584;2023-05-07T03:30:52;19.58;;;16.02;;
11962;SDS011;62678;52.130;5.584;2023-05-07T03:33:18;19.08;;;16.10;;
11962;SDS011;62678;52.130;5.584;2023-05-07T03:35:45;17.85;;;15.27;;
11962;SDS011;62678;52.130;5.584;2023-05-07T03:38:14;17.17;;;15.35;;
11962;SDS011;62678;52.130;5.584;2023-05-07T03:40:41;18.58;;;15.95;;
11962;SDS011;62678;52.130;5.584;2023-05-07T03:43:08;17.88;;;15.98;;
11962;SDS011;62678;52.130;5.584;2023-05-07T03:45:35;18.10;;;15.98;;
11962;SDS011;62678;52.130;5.584;2023-05-07T03:48:02;17.92;;;15.82;;
11962;SDS011;62678;52.130;5.584;2023-05-07T03:50:29;17.52;;;15.68;;
11962;SDS011;62678;52.130;5.584;2023-05-07T03:52:56;19.55;;;16.63;;
11962;SDS011;62678;52.130;5.584;2023-05-07T03:55:25;21.90;;;16.08;;
11962;SDS011;62678;52.130;5.584;2023-05-07T03:57:52;19.65;;;16.35;;
11962;SDS011;62678;52.130;5.584;2023-05-07T04:00:19;19.10;;;17.10;;
11962;SDS011;62678;52.130;5.584;2023-05-07T04:02:47;18.83;;;16.92;;
11962;SDS011;62678;52.130;5.584;2023-05-07T04:05:14;20.35;;;16.33;;
11962;SDS011;62678;52.130;5.584;2023-05-07T04:07:41;18.70;;;15.65;;
11962;SDS011;62678;52.130;5.584;2023-05-07T04:10:08;19.08;;;15.80;;
11962;SDS011;62678;52.130;5.584;2023-05-07T04:12:37;18.17;;;16.08;;
11962;SDS011;62678;52.130;5.584;2023-05-07T04:15:04;18.80;;;16.27;;
11962;SDS011;62678;52.130;5.584;2023-05-07T04:17:32;18.10;;;15.70;;
11962;SDS011;62678;52.130;5.584;2023-05-07T04:19:59;17.52;;;15.68;;
11962;SDS011;62678;52.130;5.584;2023-05-07T04:22:26;18.95;;;15.52;;
11962;SDS011;62678;52.130;5.584;2023-05-07T04:24:52;17.88;;;15.50;;
11962;SDS011;62678;52.130;5.584;2023-05-07T04:27:19;18.15;;;15.98;;
11962;SDS011;62678;52.130;5.584;2023-05-07T04:29:48;22.33;;;15.27;;
11962;SDS011;62678;52.130;5.584;2023-05-07T04:32:15;19.35;;;15.60;;
11962;SDS011;62678;52.130;5.584;2023-05-07T04:34:42;20.25;;;16.27;;
11962;SDS011;62678;52.130;5.584;2023-05-07T04:37:09;17.50;;;15.77;;
11962;SDS011;62678;52.130;5.584;2023-05-07T04:39:36;18.98;;;16.85;;
11962;SDS011;62678;52.130;5.584;2023-05-07T04:42:03;18.45;;;16.17;;
11962;SDS011;62678;52.130;5.584;2023-05-07T04:44:30;22.35;;;17.38;;
11962;SDS011;62678;52.130;5.584;2023-05-07T04:46:59;20.60;;;16.83;;
11962;SDS011;62678;52.130;5.584;2023-05-07T04:49:25;18.23;;;16.33;;
11962;SDS011;62678;52.130;5.584;2023-05-07T04:51:52;20.38;;;17.80;;
11962;SDS011;62678;52.130;5.584;2023-05-07T04:54:19;20.08;;;17.40;;
11962;SDS011;62678;52.130;5.584;2023-05-07T04:56:46;21.75;;;18.50;;
11962;SDS011;62678;52.130;5.584;2023-05-07T04:59:13;21.42;;;18.35;;
11962;SDS011;62678;52.130;5.584;2023-05-07T05:01:40;20.95;;;18.20;;
11962;SDS011;62678;52.130;5.584;2023-05-07T05:04:08;23.80;;;18.95;;
11962;SDS011;62678;52.130;5.584;2023-05-07T05:06:35;20.88;;;18.67;;
11962;SDS011;62678;52.130;5.584;2023-05-07T05:09:02;20.58;;;17.77;;
11962;SDS011;62678;52.130;5.584;2023-05-07T05:11:29;21.02;;;18.83;;
11962;SDS011;62678;52.130;5.584;2023-05-07T05:13:56;21.80;;;19.38;;
11962;SDS011;62678;52.130;5.584;2023-05-07T05:16:25;21.33;;;19.15;;
11962;SDS011;62678;52.130;5.584;2023-05-07T05:18:52;23.52;;;19.30;;
11962;SDS011;62678;52.130;5.584;2023-05-07T05:21:21;22.90;;;20.48;;
11962;SDS011;62678;52.130;5.584;2023-05-07T05:23:48;22.63;;;20.23;;
11962;SDS011;62678;52.130;5.584;2023-05-07T05:26:14;22.67;;;20.15;;
11962;SDS011;62678;52.130;5.584;2023-05-07T05:28:41;22.58;;;19.50;;
11962;SDS011;62678;52.130;5.584;2023-05-07T05:31:08;22.45;;;20.15;;
11962;SDS011;62678;52.130;5.584;2023-05-07T05:33:35;23.77;;;20.35;;
11962;SDS011;62678;52.130;5.584;2023-05-07T05:36:02;22.27;;;20.17;;
11962;SDS011;62678;52.130;5.584;2023-05-07T05:38:31;22.33;;;20.02;;
11962;SDS011;62678;52.130;5.584;2023-05-07T05:40:57;22.92;;;20.05;;
11962;SDS011;62678;52.130;5.584;2023-05-07T05:43:24;23.70;;;20.95;;
11962;SDS011;62678;52.130;5.584;2023-05-07T05:45:51;22.48;;;20.08;;
11962;SDS011;62678;52.130;5.584;2023-05-07T05:48:18;23.33;;;20.88;;
11962;SDS011;62678;52.130;5.584;2023-05-07T05:50:45;22.38;;;19.98;;
11962;SDS011;62678;52.130;5.584;2023-05-07T05:53:12;22.55;;;20.15;;
11962;SDS011;62678;52.130;5.584;2023-05-07T05:55:40;21.73;;;19.52;;
11962;SDS011;62678;52.130;5.584;2023-05-07T05:58:08;23.08;;;20.20;;
11962;SDS011;62678;52.130;5.584;2023-05-07T06:00:35;22.20;;;19.90;;
11962;SDS011;62678;52.130;5.584;2023-05-07T06:03:02;21.10;;;18.90;;
11962;SDS011;62678;52.130;5.584;2023-05-07T06:05:29;21.80;;;19.50;;
11962;SDS011;62678;52.130;5.584;2023-05-07T06:07:56;22.25;;;19.95;;
11962;SDS011;62678;52.130;5.584;2023-05-07T06:10:23;20.55;;;18.45;;
11962;SDS011;62678;52.130;5.584;2023-05-07T06:12:52;21.63;;;19.23;;
11962;SDS011;62678;52.130;5.584;2023-05-07T06:15:19;20.58;;;18.40;;
11962;SDS011;62678;52.130;5.584;2023-05-07T06:17:46;22.92;;;19.65;;
11962;SDS011;62678;52.130;5.584;2023-05-07T06:20:14;23.10;;;19.88;;
11962;SDS011;62678;52.130;5.584;2023-05-07T06:22:41;21.92;;;19.83;;
11962;SDS011;62678;52.130;5.584;2023-05-07T06:25:08;21.48;;;19.48;;
11962;SDS011;62678;52.130;5.584;2023-05-07T06:27:35;22.52;;;20.23;;
11962;SDS011;62678;52.130;5.584;2023-05-07T06:30:04;21.90;;;19.73;;
11962;SDS011;62678;52.130;5.584;2023-05-07T06:32:32;21.95;;;19.83;;
11962;SDS011;62678;52.130;5.584;2023-05-07T06:34:59;21.45;;;19.30;;
11962;SDS011;62678;52.130;5.584;2023-05-07T06:37:26;22.50;;;20.23;;
11962;SDS011;62678;52.130;5.584;2023-05-07T06:39:53;21.52;;;19.30;;
11962;SDS011;62678;52.130;5.584;2023-05-07T06:42:20;21.50;;;19.40;;
11962;SDS011;62678;52.130;5.584;2023-05-07T06:44:47;19.90;;;18.00;;
11962;SDS011;62678;52.130;5.584;2023-05-07T06:47:15;20.30;;;18.23;;
11962;SDS011;62678;52.130;5.584;2023-05-07T06:49:42;19.92;;;18.02;;
11962;SDS011;62678;52.130;5.584;2023-05-07T06:52:09;20.35;;;18.35;;
11962;SDS011;62678;52.130;5.584;2023-05-07T06:54:36;19.73;;;17.73;;
11962;SDS011;62678;52.130;5.584;2023-05-07T06:57:03;18.77;;;16.88;;
11962;SDS011;62678;52.130;5.584;2023-05-07T06:59:30;20.30;;;18.10;;
11962;SDS011;62678;52.130;5.584;2023-05-07T07:01:57;19.95;;;17.95;;
11962;SDS011;62678;52.130;5.584;2023-05-07T07:04:25;18.88;;;17.02;;
11962;SDS011;62678;52.130;5.584;2023-05-07T07:06:53;20.00;;;18.10;;
11962;SDS011;62678;52.130;5.584;2023-05-07T07:09:21;19.77;;;17.77;;
11962;SDS011;62678;52.130;5.584;2023-05-07T07:11:49;20.52;;;18.42;;
11962;SDS011;62678;52.130;5.584;2023-05-07T07:14:16;20.90;;;18.80;;
11962;SDS011;62678;52.130;5.584;2023-05-07T07:16:43;20.23;;;18.23;;
11962;SDS011;62678;52.130;5.584;2023-05-07T07:19:11;20.48;;;18.33;;
11962;SDS011;62678;52.130;5.584;2023-05-07T07:21:41;21.48;;;19.27;;
11962;SDS011;62678;52.130;5.584;2023-05-07T07:24:09;20.42;;;18.48;;
11962;SDS011;62678;52.130;5.584;2023-05-07T07:26:37;22.27;;;20.15;;
11962;SDS011;62678;52.130;5.584;2023-05-07T07:29:05;22.70;;;19.85;;
11962;SDS011;62678;52.130;5.584;2023-05-07T07:31:32;22.33;;;20.05;;
11962;SDS011;62678;52.130;5.584;2023-05-07T07:33:59;23.10;;;20.73;;
11962;SDS011;62678;52.130;5.584;2023-05-07T07:36:26;21.73;;;19.52;;
11962;SDS011;62678;52.130;5.584;2023-05-07T07:38:54;21.90;;;19.83;;
11962;SDS011;62678;52.130;5.584;2023-05-07T07:41:21;21.08;;;19.08;;
11962;SDS011;62678;52.130;5.584;2023-05-07T07:43:49;21.83;;;19.52;;
11962;SDS011;62678;52.130;5.584;2023-05-07T07:46:16;21.02;;;18.83;;
11962;SDS011;62678;52.130;5.584;2023-05-07T07:48:43;21.73;;;19.35;;
11962;SDS011;62678;52.130;5.584;2023-05-07T07:51:10;21.02;;;19.10;;
11962;SDS011;62678;52.130;5.584;2023-05-07T07:53:38;20.60;;;18.70;;
11962;SDS011;62678;52.130;5.584;2023-05-07T07:56:06;22.50;;;20.10;;
11962;SDS011;62678;52.130;5.584;2023-05-07T07:58:33;20.98;;;18.95;;
11962;SDS011;62678;52.130;5.584;2023-05-07T08:01:02;21.52;;;19.42;;
11962;SDS011;62678;52.130;5.584;2023-05-07T08:03:30;21.17;;;19.08;;
11962;SDS011;62678;52.130;5.584;2023-05-07T08:05:58;21.13;;;19.10;;
11962;SDS011;62678;52.130;5.584;2023-05-07T08:08:25;22.15;;;19.95;;
11962;SDS011;62678;52.130;5.584;2023-05-07T08:10:52;22.58;;;20.10;;
11962;SDS011;62678;52.130;5.584;2023-05-07T08:13:21;19.35;;;17.42;;
11962;SDS011;62678;52.130;5.584;2023-05-07T08:15:48;22.75;;;20.00;;
11962;SDS011;62678;52.130;5.584;2023-05-07T08:18:15;22.25;;;20.15;;
11962;SDS011;62678;52.130;5.584;2023-05-07T08:20:42;31.90;;;28.88;;
11962;SDS011;62678;52.130;5.584;2023-05-07T08:23:10;26.92;;;24.42;;
11962;SDS011;62678;52.130;5.584;2023-05-07T08:25:36;21.63;;;19.55;;
11962;SDS011;62678;52.130;5.584;2023-05-07T08:28:05;20.60;;;18.58;;
11962;SDS011;62678;52.130;5.584;2023-05-07T08:30:34;20.20;;;18.30;;
11962;SDS011;62678;52.130;5.584;2023-05-07T08:33:02;20.25;;;17.05;;
11962;SDS011;62678;52.130;5.584;2023-05-07T08:35:29;19.73;;;17.73;;
11962;SDS011;62678;52.130;5.584;2023-05-07T08:37:56;19.83;;;18.10;;
11962;SDS011;62678;52.130;5.584;2023-05-07T08:40:24;20.75;;;18.58;;
11962;SDS011;62678;52.130;5.584;2023-05-07T08:42:52;20.15;;;17.90;;
11962;SDS011;62678;52.130;5.584;2023-05-07T08:45:20;20.20;;;18.15;;
11962;SDS011;62678;52.130;5.584;2023-05-07T08:47:50;22.50;;;20.38;;
11962;SDS011;62678;52.130;5.584;2023-05-07T08:50:21;23.73;;;21.40;;
11962;SDS011;62678;52.130;5.584;2023-05-07T08:52:48;24.20;;;21.75;;
11962;SDS011;62678;52.130;5.584;2023-05-07T08:55:15;26.65;;;23.98;;
11962;SDS011;62678;52.130;5.584;2023-05-07T08:57:44;27.75;;;25.05;;
11962;SDS011;62678;52.130;5.584;2023-05-07T09:00:12;26.05;;;23.42;;
11962;SDS011;62678;52.130;5.584;2023-05-07T09:02:40;25.95;;;23.27;;
11962;SDS011;62678;52.130;5.584;2023-05-07T09:05:09;26.23;;;23.48;;
11962;SDS011;62678;52.130;5.584;2023-05-07T09:07:36;25.52;;;22.83;;
11962;SDS011;62678;52.130;5.584;2023-05-07T09:10:03;24.90;;;22.05;;
11962;SDS011;62678;52.130;5.584;2023-05-07T09:12:32;22.77;;;20.13;;
11962;SDS011;62678;52.130;5.584;2023-05-07T09:15:00;23.65;;;21.15;;
11962;SDS011;62678;52.130;5.584;2023-05-07T09:17:28;23.38;;;20.88;;
11962;SDS011;62678;52.130;5.584;2023-05-07T09:19:55;22.88;;;20.48;;
11962;SDS011;62678;52.130;5.584;2023-05-07T09:22:23;24.15;;;21.63;;
11962;SDS011;62678;52.130;5.584;2023-05-07T09:24:51;23.25;;;20.88;;
11962;SDS011;62678;52.130;5.584;2023-05-07T09:27:18;25.92;;;23.02;;
11962;SDS011;62678;52.130;5.584;2023-05-07T09:29:45;25.67;;;21.83;;
11962;SDS011;62678;52.130;5.584;2023-05-07T09:32:12;22.98;;;20.52;;
11962;SDS011;62678;52.130;5.584;2023-05-07T09:34:42;23.92;;;21.20;;
11962;SDS011;62678;52.130;5.584;2023-05-07T09:37:09;23.30;;;20.75;;
11962;SDS011;62678;52.130;5.584;2023-05-07T09:39:41;23.40;;;20.90;;
11962;SDS011;62678;52.130;5.584;2023-05-07T09:42:09;25.58;;;20.40;;
11962;SDS011;62678;52.130;5.584;2023-05-07T09:44:37;21.38;;;18.80;;
11962;SDS011;62678;52.130;5.584;2023-05-07T09:47:04;22.17;;;19.88;;
11962;SDS011;62678;52.130;5.584;2023-05-07T09:49:33;21.33;;;18.65;;
11962;SDS011;62678;52.130;5.584;2023-05-07T09:52:02;21.08;;;18.85;;
11962;SDS011;62678;52.130;5.584;2023-05-07T09:54:31;21.58;;;19.45;;
11962;SDS011;62678;52.130;5.584;2023-05-07T09:57:00;23.50;;;18.58;;
11962;SDS011;62678;52.130;5.584;2023-05-07T09:59:28;20.45;;;18.25;;
11962;SDS011;62678;52.130;5.584;2023-05-07T10:01:58;20.33;;;18.23;;
11962;SDS011;62678;52.130;5.584;2023-05-07T10:04:26;20.88;;;17.92;;
11962;SDS011;62678;52.130;5.584;2023-05-07T10:06:53;20.48;;;18.27;;
11962;SDS011;62678;52.130;5.584;2023-05-07T10:09:22;24.35;;;18.55;;
11962;SDS011;62678;52.130;5.584;2023-05-07T10:11:50;19.55;;;17.65;;
11962;SDS011;62678;52.130;5.584;2023-05-07T10:14:20;19.23;;;17.30;;
11962;SDS011;62678;52.130;5.584;2023-05-07T10:16:47;19.80;;;17.75;;
11962;SDS011;62678;52.130;5.584;2023-05-07T10:19:14;32.70;;;27.30;;
11962;SDS011;62678;52.130;5.584;2023-05-07T10:21:44;20.92;;;18.83;;
11962;SDS011;62678;52.130;5.584;2023-05-07T10:24:17;20.42;;;17.23;;
11962;SDS011;62678;52.130;5.584;2023-05-07T10:26:48;20.52;;;18.20;;
11962;SDS011;62678;52.130;5.584;2023-05-07T10:29:18;23.13;;;17.58;;
11962;SDS011;62678;52.130;5.584;2023-05-07T10:31:58;19.35;;;16.63;;
11962;SDS011;62678;52.130;5.584;2023-05-07T10:34:32;20.17;;;17.10;;
11962;SDS011;62678;52.130;5.584;2023-05-07T10:37:03;19.25;;;17.25;;
11962;SDS011;62678;52.130;5.584;2023-05-07T10:39:30;20.90;;;18.23;;
11962;SDS011;62678;52.130;5.584;2023-05-07T10:42:06;20.40;;;18.20;;
11962;SDS011;62678;52.130;5.584;2023-05-07T10:44:36;18.70;;;16.83;;
11962;SDS011;62678;52.130;5.584;2023-05-07T10:47:06;22.25;;;17.27;;
11962;SDS011;62678;52.130;5.584;2023-05-07T10:49:35;21.17;;;18.50;;
11962;SDS011;62678;52.130;5.584;2023-05-07T10:52:12;22.23;;;18.23;;
11962;SDS011;62678;52.130;5.584;2023-05-07T10:54:41;20.33;;;18.17;;
11962;SDS011;62678;52.130;5.584;2023-05-07T11:00:00;20.10;;;17.60;;
11962;SDS011;62678;52.130;5.584;2023-05-07T11:05:28;19.42;;;17.42;;
11962;SDS011;62678;52.130;5.584;2023-05-07T11:07:56;20.17;;;17.95;;
11962;SDS011;62678;52.130;5.584;2023-05-07T11:10:26;17.95;;;16.20;;
11962;SDS011;62678;52.130;5.584;2023-05-07T11:13:15;18.85;;;17.05;;
11962;SDS011;62678;52.130;5.584;2023-05-07T11:15:43;17.95;;;16.05;;
11962;SDS011;62678;52.130;5.584;2023-05-07T11:18:11;17.92;;;16.17;;
11962;SDS011;62678;52.130;5.584;2023-05-07T11:20:50;18.20;;;16.30;;
11962;SDS011;62678;52.130;5.584;2023-05-07T11:26:23;18.90;;;16.45;;
11962;SDS011;62678;52.130;5.584;2023-05-07T11:28:53;18.02;;;16.23;;
11962;SDS011;62678;52.130;5.584;2023-05-07T11:31:23;17.77;;;16.08;;
11962;SDS011;62678;52.130;5.584;2023-05-07T11:33:53;18.38;;;16.58;;
11962;SDS011;62678;52.130;5.584;2023-05-07T11:36:21;18.95;;;15.68;;
11962;SDS011;62678;52.130;5.584;2023-05-07T11:38:50;18.42;;;16.60;;
11962;SDS011;62678;52.130;5.584;2023-05-07T11:41:17;16.95;;;15.25;;
11962;SDS011;62678;52.130;5.584;2023-05-07T11:43:57;17.20;;;15.40;;
11962;SDS011;62678;52.130;5.584;2023-05-07T11:46:25;18.10;;;16.30;;
11962;SDS011;62678;52.130;5.584;2023-05-07T11:48:53;18.85;;;16.85;;
11962;SDS011;62678;52.130;5.584;2023-05-07T11:51:20;18.63;;;16.67;;
11962;SDS011;62678;52.130;5.584;2023-05-07T11:53:54;20.20;;;17.10;;
11962;SDS011;62678;52.130;5.584;2023-05-07T11:56:22;18.85;;;16.10;;
11962;SDS011;62678;52.130;5.584;2023-05-07T11:58:50;18.02;;;16.20;;
11962;SDS011;62678;52.130;5.584;2023-05-07T12:01:18;17.65;;;15.85;;
11962;SDS011;62678;52.130;5.584;2023-05-07T12:03:46;18.00;;;16.15;;
11962;SDS011;62678;52.130;5.584;2023-05-07T12:06:14;16.70;;;14.98;;
11962;SDS011;62678;52.130;5.584;2023-05-07T12:08:42;18.25;;;16.42;;
11962;SDS011;62678;52.130;5.584;2023-05-07T12:11:13;20.77;;;18.52;;
11962;SDS011;62678;52.130;5.584;2023-05-07T12:13:42;24.45;;;21.45;;
11962;SDS011;62678;52.130;5.584;2023-05-07T12:16:10;18.70;;;16.80;;
11962;SDS011;62678;52.130;5.584;2023-05-07T12:18:39;18.83;;;16.92;;
11962;SDS011;62678;52.130;5.584;2023-05-07T12:21:06;17.35;;;15.60;;
11962;SDS011;62678;52.130;5.584;2023-05-07T12:23:34;17.10;;;15.40;;
11962;SDS011;62678;52.130;5.584;2023-05-07T12:26:03;17.40;;;15.45;;
11962;SDS011;62678;52.130;5.584;2023-05-07T12:28:38;17.73;;;15.93;;
11962;SDS011;62678;52.130;5.584;2023-05-07T12:31:05;18.23;;;15.45;;
11962;SDS011;62678;52.130;5.584;2023-05-07T12:33:33;16.75;;;15.13;;
11962;SDS011;62678;52.130;5.584;2023-05-07T12:36:05;17.10;;;15.30;;
11962;SDS011;62678;52.130;5.584;2023-05-07T12:38:34;17.10;;;15.45;;
11962;SDS011;62678;52.130;5.584;2023-05-07T12:41:05;17.45;;;15.75;;
11962;SDS011;62678;52.130;5.584;2023-05-07T12:43:33;18.42;;;16.63;;
11962;SDS011;62678;52.130;5.584;2023-05-07T12:46:01;18.13;;;16.23;;
11962;SDS011;62678;52.130;5.584;2023-05-07T12:48:29;17.70;;;15.90;;
11962;SDS011;62678;52.130;5.584;2023-05-07T12:50:57;22.42;;;20.02;;
11962;SDS011;62678;52.130;5.584;2023-05-07T12:53:26;18.95;;;16.95;;
11962;SDS011;62678;52.130;5.584;2023-05-07T12:55:55;18.55;;;16.63;;
11962;SDS011;62678;52.130;5.584;2023-05-07T12:58:24;22.92;;;16.75;;
11962;SDS011;62678;52.130;5.584;2023-05-07T13:00:53;17.50;;;15.70;;
11962;SDS011;62678;52.130;5.584;2023-05-07T13:03:24;18.10;;;15.88;;
11962;SDS011;62678;52.130;5.584;2023-05-07T13:05:52;17.90;;;16.05;;
11962;SDS011;62678;52.130;5.584;2023-05-07T13:08:24;18.83;;;16.92;;
11962;SDS011;62678;52.130;5.584;2023-05-07T13:10:56;18.33;;;16.42;;
11962;SDS011;62678;52.130;5.584;2023-05-07T13:13:24;19.17;;;17.35;;
11962;SDS011;62678;52.130;5.584;2023-05-07T13:15:51;18.60;;;16.70;;
11962;SDS011;62678;52.130;5.584;2023-05-07T13:18:18;18.58;;;16.55;;
11962;SDS011;62678;52.130;5.584;2023-05-07T13:20:45;18.13;;;16.20;;
11962;SDS011;62678;52.130;5.584;2023-05-07T13:23:12;17.27;;;15.48;;
11962;SDS011;62678;52.130;5.584;2023-05-07T13:25:40;19.13;;;15.93;;
11962;SDS011;62678;52.130;5.584;2023-05-07T13:28:07;16.30;;;14.60;;
11962;SDS011;62678;52.130;5.584;2023-05-07T13:30:34;16.92;;;14.18;;
11962;SDS011;62678;52.130;5.584;2023-05-07T13:33:01;15.85;;;14.13;;
11962;SDS011;62678;52.130;5.584;2023-05-07T13:35:28;18.00;;;14.18;;
11962;SDS011;62678;52.130;5.584;2023-05-07T13:37:55;13.13;;;11.63;;
11962;SDS011;62678;52.130;5.584;2023-05-07T13:40:22;13.50;;;11.60;;
11962;SDS011;62678;52.130;5.584;2023-05-07T13:42:50;14.50;;;11.85;;
11962;SDS011;62678;52.130;5.584;2023-05-07T13:45:17;13.52;;;12.13;;
11962;SDS011;62678;52.130;5.584;2023-05-07T13:47:44;16.38;;;12.18;;
11962;SDS011;62678;52.130;5.584;2023-05-07T13:50:12;13.48;;;12.07;;
11962;SDS011;62678;52.130;5.584;2023-05-07T13:52:40;14.13;;;11.63;;
11962;SDS011;62678;52.130;5.584;2023-05-07T13:55:10;15.07;;;12.85;;
11962;SDS011;62678;52.130;5.584;2023-05-07T13:57:38;14.88;;;13.30;;
11962;SDS011;62678;52.130;5.584;2023-05-07T14:00:07;13.27;;;11.88;;
11962;SDS011;62678;52.130;5.584;2023-05-07T14:02:34;14.57;;;12.02;;
11962;SDS011;62678;52.130;5.584;2023-05-07T14:05:01;14.13;;;12.35;;
11962;SDS011;62678;52.130;5.584;2023-05-07T14:07:29;14.82;;;12.63;;
11962;SDS011;62678;52.130;5.584;2023-05-07T14:09:56;14.60;;;13.10;;
11962;SDS011;62678;52.130;5.584;2023-05-07T14:12:23;15.77;;;12.38;;
11962;SDS011;62678;52.130;5.584;2023-05-07T14:14:50;18.02;;;13.57;;
11962;SDS011;62678;52.130;5.584;2023-05-07T14:17:23;13.25;;;11.80;;
11962;SDS011;62678;52.130;5.584;2023-05-07T14:19:51;15.35;;;12.18;;
11962;SDS011;62678;52.130;5.584;2023-05-07T14:22:19;14.60;;;12.45;;
11962;SDS011;62678;52.130;5.584;2023-05-07T14:24:46;14.52;;;12.00;;
11962;SDS011;62678;52.130;5.584;2023-05-07T14:27:14;15.73;;;12.60;;
11962;SDS011;62678;52.130;5.584;2023-05-07T14:29:41;12.93;;;11.63;;
11962;SDS011;62678;52.130;5.584;2023-05-07T14:32:08;13.02;;;11.65;;
11962;SDS011;62678;52.130;5.584;2023-05-07T14:34:36;14.18;;;11.88;;
11962;SDS011;62678;52.130;5.584;2023-05-07T14:37:03;14.57;;;12.88;;